CheckWX is a tool to help pilots better visualize weather data.  It is not intended as a substitute for an official pre-flight weather briefing.

16:29:33 UTC

KFSM TAF
Fort Smith Regional Airport
Fort Smith, Arkansas, USA
KFSM 201403Z 2014/2112 00000KT 2SM BR SKC TEMPO 2014/2016 1/4SM FG VV001 FM201600 17008KT P6SM SCT250 FM210300 11007KT P6SM VCTS BKN060CB TEMPO 2105/2108 VRB15G30KT 3SM TSRA BKN025CB FM210900 27010KT P6SM BKN015

Oct-20@
14:00 UTC

Oct-20 @ 14:00 UTC

Oct-20@
16:00 UTC

Oct-20 @ 16:00 UTC

KFSM 201403Z 2014/2112 00000KT 2SM BR SKC

Expired

Conditions
Mist
Cloud Levels
  • Clear skies

Oct-20@
14:00 UTC

Oct-20 @ 14:00 UTC

Oct-20@
16:00 UTC

Oct-20 @ 16:00 UTC

TEMPO 2014/2016 1/4SM FG VV001

Expired

Conditions
Fog
Cloud Levels
  • Vertical visibility at 100' AGL

Oct-20@
16:00 UTC

Oct-20 @ 16:00 UTC

Oct-21@
03:00 UTC

Oct-21 @ 03:00 UTC

FM201600 17008KT P6SM SCT250

From

From Standard forecast or significant change

Wind
  • 170° at 8 KTS
Cloud Levels
  • Scattered at 25,000' AGL

Oct-21@
03:00 UTC

Oct-21 @ 03:00 UTC

Oct-21@
09:00 UTC

Oct-21 @ 09:00 UTC

FM210300 11007KT P6SM VCTS BKN060CB

From

From Standard forecast or significant change

Wind
  • 110° at 7 KTS
Conditions
Area Thunderstorm
Cloud Levels
  • Broken at 6,000' AGL

Oct-21@
05:00 UTC

Oct-21 @ 05:00 UTC

Oct-21@
08:00 UTC

Oct-21 @ 08:00 UTC

TEMPO 2105/2108 VRB15G30KT 3SM TSRA BKN025CB

Temporary

Temporary Changes expected for less than half the time period

Wind
  • Variable at 15 KTS
  • {Gusting to 30 KTS
Conditions
Thunderstorm, Rain
Cloud Levels
  • Broken at 2,500' AGL

Oct-21@
09:00 UTC

Oct-21 @ 09:00 UTC

Oct-21@
12:00 UTC

Oct-21 @ 12:00 UTC

FM210900 27010KT P6SM BKN015

From

From Standard forecast or significant change

Wind
  • 270° at 10 KTS
Cloud Levels
  • Broken at 1,500' AGL